Main page
METAR-TAF:

METAR-TAF

Airports :

Kunming, China

Kunming Changshui International Airport

latitude: 25-01N, longitude: 102-41E, elevation: 1892 m

Current weather observation

The report was made 52 minutes ago, at 02:00 UTC
Wind 14 kt from the Southwest
Temperature 17°C
Humidity 77%
Pressure 1018 hPa
Visibility 10 km or more
Few clouds at a height of 2000 ft, Towering cumulus.
Scattered clouds at a height of 2000 ft
Broken clouds at a height of 4000 ft

METAR: ZPPP 250200Z 22007MPS 9999 FEW020TCU SCT020 BKN040 17/13 Q1018 NOSIG

Time: 10:52 (02:52 UTC)

Forecast

The report was made 7 hours and 39 minutes ago, at 19:13 UTC
Forecast valid from 25 at 00 UTC to 25 at 24 UTC
Wind 12 kt from the Southwest
Visibility 10 km or more
Scattered clouds at a height of 2000 ft
Becoming
from 25 at 11 UTC to 25 at 12 UTC
Wind 8 kt from the Northeast

TAF: ZPPP 241913Z 2500/2524 22006MPS 9999 SCT020 TX21/2508Z TN10/2523Z BECMG 2511/2512 04004MPS

Weather observations and forecasts of more than 4000 airports (METAR and TAF reports).

The available stations are represented by yellow and red dots on the map.

Hover mouse over dot to see the name of the station.

Then click to see weather observations and forecasts.

To change the map : click on the green buttons with a black cross to zoom in, on the green button with a dash to zoom out, or on the green arrows for adjacent maps.


METAR-TAF: